createdAt,value
2023-01-25T00:00:43.349Z,70.73
2023-01-25T00:05:34.958Z,70.42
2023-01-25T00:10:26.542Z,70.86
2023-01-25T00:15:18.093Z,70.94
2023-01-25T00:20:11.599Z,71.64
2023-01-25T00:25:03.451Z,71.84
2023-01-25T00:29:55.003Z,71.90
2023-01-25T00:34:48.843Z,72.12
2023-01-25T00:39:40.843Z,72.72
2023-01-25T00:44:32.434Z,73.26
2023-01-25T00:49:26.929Z,73.42
2023-01-25T00:54:19.257Z,73.85
2023-01-25T00:59:12.277Z,73.46
2023-01-25T01:04:06.576Z,73.71
2023-01-25T01:08:58.231Z,73.25
2023-01-25T01:13:49.787Z,73.03
2023-01-25T01:18:44.231Z,72.87
2023-01-25T01:23:36.779Z,72.78
2023-01-25T01:28:30.589Z,73.10
2023-01-25T01:33:22.101Z,73.21
2023-01-25T01:38:13.807Z,73.57
2023-01-25T01:43:16.125Z,73.57
2023-01-25T01:48:29.316Z,73.57
2023-01-25T01:53:24.674Z,73.33
2023-01-25T01:58:16.588Z,73.12
2023-01-25T02:03:11.229Z,73.25
2023-01-25T02:08:04.004Z,73.04
2023-01-25T02:12:58.677Z,73.43
2023-01-25T02:17:51.611Z,73.88
2023-01-25T02:23:03.297Z,73.97
2023-01-25T02:27:59.948Z,74.44
2023-01-25T02:32:52.541Z,74.35
2023-01-25T02:37:45.244Z,74.32
2023-01-25T02:42:37.277Z,73.44
2023-01-25T02:47:29.839Z,73.75
2023-01-25T02:52:21.396Z,75.29
2023-01-25T02:57:13.557Z,75.51
2023-01-25T03:02:07.887Z,75.09
2023-01-25T03:07:01.558Z,74.34
2023-01-25T03:11:54.353Z,74.57
2023-01-25T03:16:47.922Z,74.31
2023-01-25T03:21:44.364Z,74.94
2023-01-25T03:26:58.858Z,75.25
2023-01-25T03:32:05.764Z,75.27
2023-01-25T03:36:57.486Z,74.73
2023-01-25T03:41:49.477Z,74.54
2023-01-25T03:46:42.635Z,74.67
2023-01-25T03:51:35.864Z,74.35
2023-01-25T03:56:28.219Z,75.31
2023-01-25T04:01:27.043Z,74.77
2023-01-25T04:06:19.187Z,75.58
2023-01-25T04:11:10.921Z,75.54
2023-01-25T04:16:11.750Z,75.93
2023-01-25T04:21:32.101Z,75.97
2023-01-25T04:26:23.999Z,75.03
2023-01-25T04:31:20.373Z,74.55
2023-01-25T04:36:14.936Z,75.20
2023-01-25T04:41:07.994Z,75.01
2023-01-25T04:46:02.666Z,75.27
2023-01-25T04:50:56.788Z,75.53
2023-01-25T04:55:49.672Z,75.79
2023-01-25T05:00:41.606Z,76.11
2023-01-25T05:05:33.683Z,76.64
2023-01-25T05:10:29.577Z,76.47
2023-01-25T05:15:50.663Z,76.22
2023-01-25T05:20:42.518Z,76.07
2023-01-25T05:25:54.283Z,76.28
2023-01-25T05:30:55.593Z,76.73
2023-01-25T05:35:50.613Z,75.62
2023-01-25T05:40:42.809Z,75.99
2023-01-25T05:45:34.451Z,75.92
2023-01-25T05:50:27.875Z,75.79
2023-01-25T05:55:25.441Z,75.79
2023-01-25T06:00:19.584Z,76.36
2023-01-25T06:05:11.527Z,76.97
2023-01-25T06:10:04.814Z,76.84
2023-01-25T06:14:57.031Z,77.03
2023-01-25T06:19:48.745Z,77.23
2023-01-25T06:24:54.794Z,76.92
2023-01-25T06:29:46.491Z,76.60
2023-01-25T06:34:38.165Z,76.94
2023-01-25T06:39:33.825Z,76.37
2023-01-25T06:44:25.447Z,77.33
2023-01-25T06:49:16.998Z,77.12
2023-01-25T06:54:08.544Z,76.11
2023-01-25T06:59:00.173Z,76.60
2023-01-25T07:03:54.193Z,76.73
2023-01-25T07:08:46.163Z,76.43
2023-01-25T07:13:38.213Z,76.24
2023-01-25T07:18:32.397Z,76.13
2023-01-25T07:23:24.641Z,76.19
2023-01-25T07:28:17.507Z,75.92
2023-01-25T07:33:11.598Z,76.26
2023-01-25T07:38:04.244Z,76.18
2023-01-25T07:42:56.066Z,76.77
2023-01-25T07:47:48.987Z,76.31
2023-01-25T07:52:41.714Z,76.36
2023-01-25T07:57:33.291Z,75.94
2023-01-25T08:02:24.898Z,75.45
2023-01-25T08:07:16.571Z,75.51
2023-01-25T08:12:09.714Z,75.61
2023-01-25T08:17:02.058Z,75.29
2023-01-25T08:21:53.686Z,74.74
2023-01-25T08:26:45.247Z,74.85
2023-01-25T08:31:39.535Z,75.16
2023-01-25T08:36:31.220Z,75.64
2023-01-25T08:41:23.471Z,75.83
2023-01-25T08:46:16.692Z,75.59
2023-01-25T08:51:11.420Z,75.65
2023-01-25T08:56:08.150Z,75.68
2023-01-25T09:01:05.615Z,75.36
2023-01-25T09:05:57.712Z,75.86
2023-01-25T09:10:49.357Z,75.88
2023-01-25T09:15:41.018Z,74.77
2023-01-25T09:20:34.490Z,74.79
2023-01-25T09:25:26.498Z,75.06
2023-01-25T09:30:19.282Z,75.08
2023-01-25T09:35:17.227Z,75.13
2023-01-25T09:40:21.923Z,75.26
2023-01-25T09:45:32.637Z,75.50
2023-01-25T09:50:27.263Z,75.19
2023-01-25T09:55:22.605Z,74.59
2023-01-25T10:00:26.807Z,74.59
2023-01-25T10:05:25.937Z,74.18
2023-01-25T10:10:30.049Z,73.74
2023-01-25T10:15:28.823Z,73.45
2023-01-25T10:20:31.824Z,73.29
2023-01-25T10:25:33.924Z,73.59
2023-01-25T10:30:31.294Z,73.17
2023-01-25T10:35:36.092Z,73.38
2023-01-25T10:40:35.194Z,73.32
2023-01-25T10:45:26.762Z,73.83
2023-01-25T10:50:54.528Z,73.11
2023-01-25T10:56:05.545Z,72.86
2023-01-25T11:00:58.038Z,73.21
2023-01-25T11:05:57.135Z,72.99
2023-01-25T11:10:49.556Z,72.28
2023-01-25T11:15:44.653Z,72.16
2023-01-25T11:20:36.387Z,72.55
2023-01-25T11:25:34.104Z,72.27
2023-01-25T11:30:25.797Z,72.79
2023-01-25T11:35:25.715Z,73.21
2023-01-25T11:40:22.220Z,72.86
2023-01-25T11:45:24.175Z,72.62
2023-01-25T11:50:36.389Z,72.73
2023-01-25T11:55:56.382Z,72.23
2023-01-25T12:01:16.143Z,72.81
2023-01-25T12:06:16.687Z,72.82
2023-01-25T12:11:23.533Z,72.90
2023-01-25T12:16:38.290Z,72.66
2023-01-25T12:22:00.941Z,73.21
2023-01-25T12:27:05.926Z,72.62
2023-01-25T12:32:33.146Z,73.38
2023-01-25T12:37:32.704Z,72.95
2023-01-25T12:42:57.539Z,73.35
2023-01-25T12:47:58.038Z,72.60
2023-01-25T12:52:55.893Z,72.90
2023-01-25T12:57:56.717Z,73.46
2023-01-25T13:03:00.150Z,73.30
2023-01-25T13:08:14.056Z,72.50
2023-01-25T13:13:28.835Z,72.89
2023-01-25T13:18:31.025Z,72.97
2023-01-25T13:23:43.793Z,72.31
2023-01-25T13:28:47.444Z,73.47
2023-01-25T13:33:39.116Z,73.95
2023-01-25T13:38:33.230Z,73.97
2023-01-25T13:43:24.943Z,74.89
2023-01-25T13:48:23.329Z,74.33
2023-01-25T13:53:14.975Z,74.98
2023-01-25T13:58:33.828Z,75.63
2023-01-25T14:03:32.203Z,76.39
2023-01-25T14:08:26.388Z,76.07
2023-01-25T14:13:18.650Z,76.28
2023-01-25T14:18:19.217Z,76.16
2023-01-25T14:23:22.059Z,76.29
2023-01-25T14:28:15.133Z,76.82
2023-01-25T14:33:24.583Z,77.28
2023-01-25T14:38:25.424Z,76.79
2023-01-25T14:43:18.147Z,76.08
2023-01-25T14:48:40.470Z,75.96
2023-01-25T14:53:32.205Z,76.56
2023-01-25T14:58:25.355Z,76.16
2023-01-25T15:03:17.362Z,76.24
2023-01-25T15:08:08.845Z,75.93
2023-01-25T15:13:13.763Z,75.93
2023-01-25T15:18:06.485Z,75.94
2023-01-25T15:23:14.240Z,75.42
2023-01-25T15:28:06.470Z,76.16
2023-01-25T15:32:59.943Z,75.88
2023-01-25T15:37:51.527Z,76.75
2023-01-25T15:42:43.190Z,76.28
2023-01-25T15:47:36.748Z,75.68
2023-01-25T15:52:28.473Z,75.36
2023-01-25T15:57:30.085Z,74.98
2023-01-25T16:02:21.771Z,75.30
2023-01-25T16:07:22.945Z,75.33
2023-01-25T16:12:15.910Z,75.89
2023-01-25T16:17:18.331Z,75.19
2023-01-25T16:22:10.468Z,75.27
2023-01-25T16:27:02.128Z,74.86
2023-01-25T16:31:55.425Z,75.24
2023-01-25T16:36:50.664Z,75.71
2023-01-25T16:41:42.342Z,76.71
2023-01-25T16:46:33.998Z,77.17
2023-01-25T16:51:27.959Z,76.55
2023-01-25T16:56:21.783Z,76.13
2023-01-25T17:01:15.009Z,76.69
2023-01-25T17:06:07.957Z,77.44
2023-01-25T17:11:04.970Z,77.23
2023-01-25T17:15:57.068Z,77.33
2023-01-25T17:20:57.625Z,77.41
2023-01-25T17:25:49.227Z,77.04
2023-01-25T17:30:41.237Z,76.70
2023-01-25T17:35:35.825Z,76.77
2023-01-25T17:40:27.524Z,76.24
2023-01-25T17:45:19.275Z,76.08
2023-01-25T17:50:11.431Z,76.09
2023-01-25T17:55:03.749Z,76.14
2023-01-25T17:59:55.491Z,76.19
2023-01-25T18:04:47.027Z,76.20
2023-01-25T18:09:38.600Z,76.57
2023-01-25T18:14:30.294Z,76.21
2023-01-25T18:19:22.520Z,76.67
2023-01-25T18:24:34.105Z,76.16
2023-01-25T18:29:51.117Z,76.75
2023-01-25T18:34:42.733Z,76.02
2023-01-25T18:39:34.552Z,75.56
2023-01-25T18:44:26.125Z,75.57
2023-01-25T18:49:17.710Z,76.01
2023-01-25T18:54:09.229Z,76.61
2023-01-25T18:59:00.951Z,76.31
2023-01-25T19:03:52.843Z,77.12
2023-01-25T19:08:49.669Z,77.01
2023-01-25T19:13:42.453Z,78.30
2023-01-25T19:18:40.876Z,78.47
2023-01-25T19:23:34.626Z,78.30
2023-01-25T19:28:26.907Z,78.75
2023-01-25T19:33:20.852Z,79.14
2023-01-25T19:38:13.539Z,78.86
2023-01-25T19:43:05.375Z,79.46
2023-01-25T19:47:56.935Z,79.48
2023-01-25T19:52:48.491Z,79.95
2023-01-25T19:57:40.328Z,78.95
2023-01-25T20:02:32.341Z,79.02
2023-01-25T20:07:25.744Z,79.69
2023-01-25T20:12:17.265Z,79.94
2023-01-25T20:17:09.190Z,79.42
2023-01-25T20:22:01.391Z,78.76
2023-01-25T20:26:53.041Z,79.16
2023-01-25T20:31:45.876Z,79.54
2023-01-25T20:36:38.289Z,79.37
2023-01-25T20:41:30.221Z,79.18
2023-01-25T20:46:22.179Z,78.59
2023-01-25T20:51:16.876Z,78.58
2023-01-25T20:56:09.689Z,78.30
2023-01-25T21:01:01.482Z,78.49
2023-01-25T21:05:56.585Z,78.20
2023-01-25T21:10:54.219Z,77.90
2023-01-25T21:15:59.396Z,77.09
2023-01-25T21:20:50.995Z,77.61
2023-01-25T21:25:42.830Z,77.12
2023-01-25T21:30:34.446Z,77.46
2023-01-25T21:35:26.423Z,77.87
2023-01-25T21:40:18.079Z,77.97
2023-01-25T21:45:29.232Z,77.03
2023-01-25T21:50:39.400Z,76.33
2023-01-25T21:55:30.930Z,76.26
2023-01-25T22:00:22.544Z,75.90
2023-01-25T22:05:14.145Z,75.90
2023-01-25T22:10:05.961Z,75.79
2023-01-25T22:14:57.627Z,76.22
2023-01-25T22:19:49.337Z,76.08
2023-01-25T22:24:40.960Z,74.34
2023-01-25T22:29:34.330Z,75.10
2023-01-25T22:34:26.645Z,75.17
2023-01-25T22:39:18.358Z,75.22
2023-01-25T22:44:10.169Z,75.27
2023-01-25T22:49:02.582Z,75.38
2023-01-25T22:53:55.662Z,75.59
2023-01-25T22:58:48.403Z,75.51
2023-01-25T23:03:40.390Z,77.21
2023-01-25T23:08:34.398Z,76.67
2023-01-25T23:13:26.490Z,76.11
2023-01-25T23:18:36.877Z,76.88
2023-01-25T23:23:28.912Z,76.69
2023-01-25T23:28:20.496Z,76.47
2023-01-25T23:33:12.162Z,75.54
2023-01-25T23:38:15.183Z,76.90
2023-01-25T23:43:06.870Z,77.18
2023-01-25T23:47:58.557Z,77.55
2023-01-25T23:52:50.100Z,77.09
2023-01-25T23:57:41.808Z,77.15
